ADDS METAR Data INFO
IDs: Format: Raw Decoded Include TAF

Data at: 0144 UTC 18 Oct 2017

KRFI 180135Z AUTO 00000KT 10SM CLR 12/06 A3019 RMK AO2 T01180059
KRFI 180115Z AUTO 00000KT 10SM CLR 13/06 A3018 RMK AO2 T01320064
KRFI 180055Z AUTO 00000KT 10SM CLR 14/06 A3018 RMK AO2 T01380058
KRFI 180035Z AUTO 00000KT 10SM CLR 15/06 A3017 RMK AO2 T01500060
KRFI 180015Z AUTO 00000KT 10SM CLR 16/05 A3017 RMK AO2 T01640051
KRFI 172355Z AUTO 00000KT 10SM CLR 18/05 A3017 RMK AO2 T01830051 10249 20183
KRFI 172335Z AUTO 00000KT 10SM CLR 21/05 A3016 RMK AO2 T02090052 PWINO
KRFI 172315Z AUTO 00000KT 10SM CLR 23/04 A3017 RMK AO2 T02290037 PWINO
KRFI 172255Z AUTO 08003KT 10SM CLR 24/04 A3017 RMK AO2 T02350036 PWINO
KRFI 172235Z AUTO 11004KT 10SM CLR 24/04 A3017 RMK AO2 T02410037
KRFI 172215Z AUTO 00000KT 10SM CLR 25/03 A3017 RMK AO2 T02450034 PWINO
KRFI 172155Z AUTO 03004KT 10SM CLR 24/03 A3018 RMK AO2 T02430027
KRFI 172135Z AUTO 05005KT 10SM CLR 25/03 A3018 RMK AO2 T02460031
KRFI 172115Z AUTO 10003KT 10SM CLR 25/02 A3018 RMK AO2 T02470023 PWINO
KRFI 172055Z AUTO 03003KT 10SM CLR 24/03 A3019 RMK AO2 T02440030
KRFI 172035Z AUTO 35003KT 10SM CLR 25/03 A3019 RMK AO2 T02460031
KRFI 172015Z AUTO 05005KT 10SM CLR 25/03 A3020 RMK AO2 T02470032
KRFI 171955Z AUTO 36004KT 10SM CLR 24/02 A3021 RMK AO2 T02390022
KRFI 171935Z AUTO 00000KT 10SM CLR 24/03 A3022 RMK AO2 T02390032
KRFI 171915Z AUTO 33004KT 10SM CLR 23/03 A3023 RMK AO2 T02340028
KRFI 171855Z AUTO 05004KT 10SM CLR 23/04 A3024 RMK AO2 T02300038
KRFI 171835Z AUTO 00000KT 10SM CLR 22/04 A3025 RMK AO2 T02210036
KRFI 171815Z AUTO 00000KT 10SM CLR 22/03 A3026 RMK AO2 T02170030
KRFI 171755Z AUTO 00000KT 10SM CLR 22/04 A3028 RMK AO2 T02170040 10219 20035 PWINO
KRFI 171735Z AUTO 09006KT 070V130 10SM CLR 21/04 A3029 RMK AO2 T02110040 PWINO
KRFI 171715Z AUTO 34004KT 10SM CLR 20/05 A3031 RMK AO2 T01970045
KRFI 171655Z AUTO 02004KT 10SM CLR 20/04 A3031 RMK AO2 T01960042
KRFI 171635Z AUTO 13005KT 10SM CLR 19/05 A3032 RMK AO2 T01900047
KRFI 171615Z AUTO 06004KT 10SM CLR 18/05 A3033 RMK AO2 T01800050
KRFI 171555Z AUTO 06005KT 10SM CLR 18/05 A3033 RMK AO2 T01790050
KRFI 171535Z AUTO 10005KT 10SM CLR 17/05 A3033 RMK AO2 T01700054 PWINO
KRFI 171515Z AUTO 09004KT 10SM CLR 17/05 A3034 RMK AO2 T01660054
KRFI 171455Z AUTO 09003KT 10SM CLR 16/06 A3034 RMK AO2 T01560060
KRFI 171435Z AUTO 11004KT 10SM CLR 15/06 A3034 RMK AO2 T01450060
KRFI 171415Z AUTO 00000KT 10SM CLR 13/07 A3033 RMK AO2 T01260066
KRFI 171355Z AUTO 00000KT 10SM CLR 10/07 A3033 RMK AO2 T01040066
KRFI 171335Z AUTO 00000KT 10SM CLR 09/06 A3032 RMK AO2 T00850061 PWINO
KRFI 171315Z AUTO 00000KT 10SM CLR 05/05 A3031 RMK AO2 T00540048
KRFI 171255Z AUTO 00000KT 10SM CLR 04/04 A3031 RMK AO2 T00410037 PWINO
KRFI 171235Z AUTO 00000KT 10SM CLR 04/03 A3030 RMK AO2 T00370031
KRFI 171215Z AUTO 00000KT 10SM CLR 04/03 A3030 RMK AO2 T00360031
KRFI 171155Z AUTO 00000KT 10SM CLR 04/04 A3029 RMK AO2 T00420035 10070 20041
KRFI 171135Z AUTO 00000KT 10SM CLR 05/04 A3029 RMK AO2 T00460041
KRFI 171115Z AUTO 00000KT 10SM CLR 05/04 A3029 RMK AO2 T00470040
KRFI 171055Z AUTO 00000KT 10SM CLR 05/04 A3029 RMK AO2 T00500038
KRFI 171035Z AUTO 00000KT 10SM CLR 05/04 A3028 RMK AO2 T00450039
KRFI 171015Z AUTO 00000KT 10SM CLR 04/04 A3029 RMK AO2 T00440038
KRFI 170955Z AUTO 00000KT 10SM CLR 04/04 A3029 RMK AO2 T00440037
KRFI 170935Z AUTO 00000KT 10SM CLR 05/04 A3029 RMK AO2 T00480042
KRFI 170915Z AUTO 00000KT 10SM CLR 05/04 A3029 RMK AO2 T00460040
KRFI 170855Z AUTO 00000KT 10SM CLR 05/04 A3029 RMK AO2 T00480042
KRFI 170835Z AUTO 00000KT 10SM CLR 05/05 A3029 RMK AO2 T00520045
KRFI 170815Z AUTO 00000KT 10SM CLR 05/04 A3029 RMK AO2 T00500042 PWINO
KRFI 170755Z AUTO 00000KT 10SM CLR 05/05 A3029 RMK AO2 T00540045 PWINO
KRFI 170735Z AUTO 00000KT 10SM CLR 06/05 A3029 RMK AO2 T00560048 PWINO
KRFI 170715Z AUTO 00000KT 10SM CLR 06/05 A3029 RMK AO2 T00590050 PWINO
KRFI 170655Z AUTO 00000KT 10SM CLR 06/05 A3029 RMK AO2 T00630049
KRFI 170635Z AUTO 00000KT 10SM CLR 07/05 A3029 RMK AO2 T00670051
KRFI 170615Z AUTO 00000KT 10SM CLR 07/05 A3029 RMK AO2 T00660050 PWINO
KRFI 170555Z AUTO 00000KT 10SM CLR 07/05 A3029 RMK AO2 T00680054 10168 20068 402310068 PWINO
KRFI 170535Z AUTO 00000KT 10SM CLR 07/06 A3029 RMK AO2 T00720055 PWINO
KRFI 170515Z AUTO 00000KT 10SM CLR 08/06 A3029 RMK AO2 T00750055 PWINO
KRFI 170455Z AUTO 00000KT 10SM CLR 08/05 A3029 RMK AO2 T00830054
KRFI 170435Z AUTO 00000KT 10SM CLR 08/05 A3029 RMK AO2 T00820053 PWINO
KRFI 170410Z AUTO 00000KT 10SM CLR 09/06 A3029 RMK AO2 T00910058 PWINO
KRFI 170355Z AUTO 00000KT 10SM CLR 10/06 A3030 RMK AO2 T00990056 PWINO
KRFI 170335Z AUTO 00000KT 10SM CLR 10/05 A3030 RMK AO2 T00980052 PWINO
KRFI 170315Z AUTO 00000KT 10SM CLR 10/06 A3030 RMK AO2 T01000055 PWINO
KRFI 170255Z AUTO 00000KT 10SM CLR 11/06 A3030 RMK AO2 T01080060 PWINO
KRFI 170235Z AUTO 00000KT 10SM CLR 11/06 A3030 RMK AO2 T01080057
KRFI 170215Z AUTO 00000KT 10SM CLR 11/06 A3030 RMK AO2 T01100061
KRFI 170155Z AUTO 00000KT 10SM CLR 12/06 A3029 RMK AO2 T01220057
KRFI 170135Z AUTO 00000KT 10SM CLR 12/06 A3028 RMK AO2 T01230056
KRFI 170115Z AUTO 00000KT 10SM CLR 13/06 A3028 RMK AO2 T01340056 PWINO
KRFI 170055Z AUTO 00000KT 10SM CLR 14/06 A3027 RMK AO2 T01350055
KRFI 170035Z AUTO 00000KT 10SM CLR 14/05 A3027 RMK AO2 T01410052
KRFI 170015Z AUTO 00000KT 10SM CLR 16/05 A3026 RMK AO2 T01590052
KRFI 162355Z AUTO 00000KT 10SM CLR 18/05 A3026 RMK AO2 T01750048 10231 20175
KRFI 162335Z AUTO 02004KT 10SM CLR 20/04 A3025 RMK AO2 T01960035
KRFI 162315Z AUTO 02006KT 10SM CLR 21/03 A3025 RMK AO2 T02100029
KRFI 162255Z AUTO 02005KT 10SM CLR 22/03 A3024 RMK AO2 T02160027
KRFI 162235Z AUTO 01006KT 10SM CLR 22/03 A3024 RMK AO2 T02190025
KRFI 162215Z AUTO 01008KT 10SM CLR 22/03 A3024 RMK AO2 T02220025
KRFI 162155Z AUTO 03010G14KT 10SM CLR 23/02 A3025 RMK AO2 T02260022
KRFI 162135Z AUTO 35012G16KT 10SM CLR 23/03 A3025 RMK AO2 T02270026
KRFI 162115Z AUTO 05010G15KT 360V060 10SM CLR 23/03 A3025 RMK AO2 T02280030
KRFI 162055Z AUTO 02010KT 320V030 10SM CLR 23/04 A3025 RMK AO2 T02260041
KRFI 162035Z AUTO 35007KT 330V030 10SM CLR 23/04 A3026 RMK AO2 T02260043
KRFI 162015Z AUTO 04009KT 10SM CLR 23/04 A3027 RMK AO2 T02280043 PWINO
KRFI 161955Z AUTO 01013G17KT 10SM CLR 22/05 A3027 RMK AO2 T02240049
KRFI 161935Z AUTO 01011G14KT 10SM CLR 22/05 A3028 RMK AO2 T02220048
KRFI 161915Z AUTO 36006KT 10SM CLR 21/05 A3029 RMK AO2 T02140053
KRFI 161855Z AUTO 01011G17KT 10SM CLR 21/05 A3030 RMK AO2 T02140051 PWINO
KRFI 161835Z AUTO 36007G15KT 10SM CLR 21/05 A3032 RMK AO2 T02100054
KRFI 161815Z AUTO 36008KT 10SM CLR 21/06 A3033 RMK AO2 T02110064
KRFI 161755Z AUTO 35008KT 10SM CLR 21/07 A3034 RMK AO2 T02050065 10206 20088
KRFI 161735Z AUTO 03006KT 10SM CLR 20/06 A3035 RMK AO2 T01980062
KRFI 161715Z AUTO 05009G21KT 10SM CLR 20/07 A3036 RMK AO2 T01980066
KRFI 161655Z AUTO 05011G14KT 10SM CLR 19/06 A3037 RMK AO2 T01890060
KRFI 161635Z AUTO 02003G15KT 10SM CLR 19/06 A3037 RMK AO2 T01870064
KRFI 161615Z AUTO 06008KT 10SM CLR 18/07 A3038 RMK AO2 T01830065
KRFI 161555Z AUTO 07007KT 10SM CLR 18/07 A3038 RMK AO2 T01790066
KRFI 161535Z AUTO 06006KT 030V100 10SM CLR 17/07 A3039 RMK AO2 T01710068
KRFI 161515Z AUTO 04010G18KT 10SM CLR 16/07 A3039 RMK AO2 T01610065
KRFI 161455Z AUTO 07011G16KT 10SM CLR 16/07 A3038 RMK AO2 T01580065
KRFI 161435Z AUTO 05008G16KT 10SM CLR 15/07 A3038 RMK AO2 T01530067
KRFI 161415Z AUTO 04007KT 10SM CLR 14/07 A3038 RMK AO2 T01440067
KRFI 161355Z AUTO 04008KT 10SM CLR 13/07 A3037 RMK AO2 T01330067